sensor_id;sensor_type;location;lat;lon;timestamp;P1;durP1;ratioP1;P2;durP2;ratioP2
4812;SDS011;2420;51.202;8.698;2023-11-18T00:01:20;25.95;;;15.07;;
4812;SDS011;2420;51.202;8.698;2023-11-18T00:03:45;25.65;;;15.68;;
4812;SDS011;2420;51.202;8.698;2023-11-18T00:06:11;27.13;;;16.08;;
4812;SDS011;2420;51.202;8.698;2023-11-18T00:08:37;29.15;;;15.32;;
4812;SDS011;2420;51.202;8.698;2023-11-18T00:11:03;23.92;;;14.18;;
4812;SDS011;2420;51.202;8.698;2023-11-18T00:13:29;22.95;;;15.30;;
4812;SDS011;2420;51.202;8.698;2023-11-18T00:15:55;18.25;;;11.77;;
4812;SDS011;2420;51.202;8.698;2023-11-18T00:18:20;16.83;;;10.18;;
4812;SDS011;2420;51.202;8.698;2023-11-18T00:20:46;19.70;;;10.98;;
4812;SDS011;2420;51.202;8.698;2023-11-18T00:23:11;19.67;;;10.23;;
4812;SDS011;2420;51.202;8.698;2023-11-18T00:25:37;22.48;;;13.15;;
4812;SDS011;2420;51.202;8.698;2023-11-18T00:28:05;23.65;;;11.93;;
4812;SDS011;2420;51.202;8.698;2023-11-18T00:30:32;21.38;;;10.88;;
4812;SDS011;2420;51.202;8.698;2023-11-18T00:33:00;20.88;;;10.82;;
4812;SDS011;2420;51.202;8.698;2023-11-18T00:35:25;17.75;;;10.63;;
4812;SDS011;2420;51.202;8.698;2023-11-18T00:37:51;19.55;;;10.95;;
4812;SDS011;2420;51.202;8.698;2023-11-18T00:40:16;20.92;;;11.65;;
4812;SDS011;2420;51.202;8.698;2023-11-18T00:42:43;21.17;;;11.18;;
4812;SDS011;2420;51.202;8.698;2023-11-18T00:45:10;27.05;;;12.45;;
4812;SDS011;2420;51.202;8.698;2023-11-18T00:47:37;19.00;;;11.05;;
4812;SDS011;2420;51.202;8.698;2023-11-18T00:50:04;20.30;;;11.57;;
4812;SDS011;2420;51.202;8.698;2023-11-18T00:52:33;17.88;;;11.23;;
4812;SDS011;2420;51.202;8.698;2023-11-18T00:54:58;22.35;;;11.13;;
4812;SDS011;2420;51.202;8.698;2023-11-18T00:57:24;21.00;;;11.40;;
4812;SDS011;2420;51.202;8.698;2023-11-18T00:59:50;22.80;;;11.30;;
4812;SDS011;2420;51.202;8.698;2023-11-18T01:02:15;19.92;;;11.05;;
4812;SDS011;2420;51.202;8.698;2023-11-18T01:04:43;23.55;;;11.50;;
4812;SDS011;2420;51.202;8.698;2023-11-18T01:07:10;23.15;;;11.52;;
4812;SDS011;2420;51.202;8.698;2023-11-18T01:09:37;22.45;;;10.30;;
4812;SDS011;2420;51.202;8.698;2023-11-18T01:12:04;19.70;;;10.77;;
4812;SDS011;2420;51.202;8.698;2023-11-18T01:14:30;22.35;;;11.60;;
4812;SDS011;2420;51.202;8.698;2023-11-18T01:16:56;23.98;;;10.95;;
4812;SDS011;2420;51.202;8.698;2023-11-18T01:19:22;25.17;;;11.63;;
4812;SDS011;2420;51.202;8.698;2023-11-18T01:21:48;24.20;;;12.27;;
4812;SDS011;2420;51.202;8.698;2023-11-18T01:24:14;21.17;;;11.35;;
4812;SDS011;2420;51.202;8.698;2023-11-18T01:26:41;23.13;;;11.30;;
4812;SDS011;2420;51.202;8.698;2023-11-18T01:29:07;22.92;;;11.85;;
4812;SDS011;2420;51.202;8.698;2023-11-18T01:31:32;18.88;;;10.60;;
4812;SDS011;2420;51.202;8.698;2023-11-18T01:33:58;17.65;;;9.27;;
4812;SDS011;2420;51.202;8.698;2023-11-18T01:36:24;18.10;;;9.50;;
4812;SDS011;2420;51.202;8.698;2023-11-18T01:38:50;16.85;;;9.15;;
4812;SDS011;2420;51.202;8.698;2023-11-18T01:41:16;15.85;;;9.23;;
4812;SDS011;2420;51.202;8.698;2023-11-18T01:43:43;16.45;;;8.25;;
4812;SDS011;2420;51.202;8.698;2023-11-18T01:46:11;14.40;;;8.38;;
4812;SDS011;2420;51.202;8.698;2023-11-18T01:48:38;14.18;;;8.00;;
4812;SDS011;2420;51.202;8.698;2023-11-18T01:51:06;19.27;;;8.73;;
4812;SDS011;2420;51.202;8.698;2023-11-18T01:53:36;14.90;;;8.10;;
4812;SDS011;2420;51.202;8.698;2023-11-18T01:56:02;16.25;;;9.10;;
4812;SDS011;2420;51.202;8.698;2023-11-18T01:58:30;17.67;;;8.70;;
4812;SDS011;2420;51.202;8.698;2023-11-18T02:00:56;17.65;;;8.73;;
4812;SDS011;2420;51.202;8.698;2023-11-18T02:03:22;17.90;;;8.35;;
4812;SDS011;2420;51.202;8.698;2023-11-18T02:05:48;25.40;;;10.02;;
4812;SDS011;2420;51.202;8.698;2023-11-18T02:08:14;20.08;;;10.10;;
4812;SDS011;2420;51.202;8.698;2023-11-18T02:10:46;16.88;;;9.25;;
4812;SDS011;2420;51.202;8.698;2023-11-18T02:15:50;22.90;;;9.55;;
4812;SDS011;2420;51.202;8.698;2023-11-18T02:18:19;22.95;;;10.10;;
4812;SDS011;2420;51.202;8.698;2023-11-18T02:20:47;22.92;;;10.55;;
4812;SDS011;2420;51.202;8.698;2023-11-18T02:23:13;23.60;;;10.13;;
4812;SDS011;2420;51.202;8.698;2023-11-18T02:25:46;23.50;;;10.00;;
4812;SDS011;2420;51.202;8.698;2023-11-18T02:28:12;22.92;;;10.45;;
4812;SDS011;2420;51.202;8.698;2023-11-18T02:30:38;19.67;;;9.48;;
4812;SDS011;2420;51.202;8.698;2023-11-18T02:33:16;29.40;;;12.27;;
4812;SDS011;2420;51.202;8.698;2023-11-18T02:35:53;39.42;;;15.93;;
4812;SDS011;2420;51.202;8.698;2023-11-18T02:38:31;21.92;;;10.75;;
4812;SDS011;2420;51.202;8.698;2023-11-18T02:41:04;27.20;;;10.82;;
4812;SDS011;2420;51.202;8.698;2023-11-18T02:43:33;24.50;;;10.52;;
4812;SDS011;2420;51.202;8.698;2023-11-18T02:46:02;26.60;;;10.73;;
4812;SDS011;2420;51.202;8.698;2023-11-18T02:48:29;28.08;;;10.70;;
4812;SDS011;2420;51.202;8.698;2023-11-18T02:50:57;19.55;;;10.30;;
4812;SDS011;2420;51.202;8.698;2023-11-18T02:53:23;27.70;;;11.40;;
4812;SDS011;2420;51.202;8.698;2023-11-18T02:55:49;20.92;;;10.43;;
4812;SDS011;2420;51.202;8.698;2023-11-18T02:58:17;24.02;;;10.13;;
4812;SDS011;2420;51.202;8.698;2023-11-18T03:00:43;28.55;;;10.52;;
4812;SDS011;2420;51.202;8.698;2023-11-18T03:03:09;21.23;;;9.68;;
4812;SDS011;2420;51.202;8.698;2023-11-18T03:05:36;23.80;;;10.45;;
4812;SDS011;2420;51.202;8.698;2023-11-18T03:08:02;23.20;;;9.82;;
4812;SDS011;2420;51.202;8.698;2023-11-18T03:10:31;22.83;;;10.07;;
4812;SDS011;2420;51.202;8.698;2023-11-18T03:13:00;21.40;;;9.50;;
4812;SDS011;2420;51.202;8.698;2023-11-18T03:15:26;28.08;;;11.10;;
4812;SDS011;2420;51.202;8.698;2023-11-18T03:17:52;26.70;;;11.80;;
4812;SDS011;2420;51.202;8.698;2023-11-18T03:20:18;28.10;;;13.45;;
4812;SDS011;2420;51.202;8.698;2023-11-18T03:22:45;23.23;;;12.57;;
4812;SDS011;2420;51.202;8.698;2023-11-18T03:25:14;22.98;;;11.80;;
4812;SDS011;2420;51.202;8.698;2023-11-18T03:27:40;20.00;;;10.82;;
4812;SDS011;2420;51.202;8.698;2023-11-18T03:30:06;19.02;;;9.90;;
4812;SDS011;2420;51.202;8.698;2023-11-18T03:32:35;16.45;;;9.27;;
4812;SDS011;2420;51.202;8.698;2023-11-18T03:35:05;17.42;;;9.60;;
4812;SDS011;2420;51.202;8.698;2023-11-18T03:37:40;19.00;;;9.50;;
4812;SDS011;2420;51.202;8.698;2023-11-18T03:40:10;19.00;;;9.95;;
4812;SDS011;2420;51.202;8.698;2023-11-18T03:42:37;20.70;;;9.60;;
4812;SDS011;2420;51.202;8.698;2023-11-18T03:45:04;18.95;;;9.80;;
4812;SDS011;2420;51.202;8.698;2023-11-18T03:47:31;17.73;;;9.77;;
4812;SDS011;2420;51.202;8.698;2023-11-18T03:49:56;16.13;;;9.65;;
4812;SDS011;2420;51.202;8.698;2023-11-18T03:52:23;20.23;;;9.88;;
4812;SDS011;2420;51.202;8.698;2023-11-18T03:54:52;16.75;;;9.27;;
4812;SDS011;2420;51.202;8.698;2023-11-18T03:57:17;15.52;;;9.48;;
4812;SDS011;2420;51.202;8.698;2023-11-18T03:59:43;16.83;;;9.32;;
4812;SDS011;2420;51.202;8.698;2023-11-18T04:02:08;16.77;;;9.00;;
4812;SDS011;2420;51.202;8.698;2023-11-18T04:04:36;16.30;;;9.10;;
4812;SDS011;2420;51.202;8.698;2023-11-18T04:07:04;17.67;;;10.00;;
4812;SDS011;2420;51.202;8.698;2023-11-18T04:09:31;17.17;;;9.27;;
4812;SDS011;2420;51.202;8.698;2023-11-18T04:11:57;18.48;;;10.20;;
4812;SDS011;2420;51.202;8.698;2023-11-18T04:14:23;26.73;;;12.27;;
4812;SDS011;2420;51.202;8.698;2023-11-18T04:16:50;33.72;;;12.35;;
4812;SDS011;2420;51.202;8.698;2023-11-18T04:19:16;25.25;;;10.68;;
4812;SDS011;2420;51.202;8.698;2023-11-18T04:21:42;23.33;;;11.32;;
4812;SDS011;2420;51.202;8.698;2023-11-18T04:24:12;21.40;;;10.25;;
4812;SDS011;2420;51.202;8.698;2023-11-18T04:26:38;23.05;;;11.43;;
4812;SDS011;2420;51.202;8.698;2023-11-18T04:29:03;19.23;;;10.70;;
4812;SDS011;2420;51.202;8.698;2023-11-18T04:31:29;28.00;;;11.63;;
4812;SDS011;2420;51.202;8.698;2023-11-18T04:33:54;18.48;;;9.77;;
4812;SDS011;2420;51.202;8.698;2023-11-18T04:36:20;17.90;;;8.98;;
4812;SDS011;2420;51.202;8.698;2023-11-18T04:38:47;19.05;;;9.30;;
4812;SDS011;2420;51.202;8.698;2023-11-18T04:41:12;22.25;;;8.57;;
4812;SDS011;2420;51.202;8.698;2023-11-18T04:43:38;13.98;;;7.88;;
4812;SDS011;2420;51.202;8.698;2023-11-18T04:46:06;16.40;;;7.90;;
4812;SDS011;2420;51.202;8.698;2023-11-18T04:48:32;13.90;;;7.18;;
4812;SDS011;2420;51.202;8.698;2023-11-18T04:50:59;15.75;;;8.15;;
4812;SDS011;2420;51.202;8.698;2023-11-18T04:53:24;13.73;;;7.82;;
4812;SDS011;2420;51.202;8.698;2023-11-18T04:55:50;12.25;;;7.10;;
4812;SDS011;2420;51.202;8.698;2023-11-18T04:58:16;12.65;;;7.38;;
4812;SDS011;2420;51.202;8.698;2023-11-18T05:00:42;12.13;;;7.00;;
4812;SDS011;2420;51.202;8.698;2023-11-18T05:03:08;12.93;;;7.40;;
4812;SDS011;2420;51.202;8.698;2023-11-18T05:05:34;12.43;;;7.00;;
4812;SDS011;2420;51.202;8.698;2023-11-18T05:08:03;12.77;;;7.07;;
4812;SDS011;2420;51.202;8.698;2023-11-18T05:10:31;11.80;;;6.65;;
4812;SDS011;2420;51.202;8.698;2023-11-18T05:12:57;12.40;;;7.28;;
4812;SDS011;2420;51.202;8.698;2023-11-18T05:15:22;12.90;;;7.30;;
4812;SDS011;2420;51.202;8.698;2023-11-18T05:17:51;13.25;;;6.95;;
4812;SDS011;2420;51.202;8.698;2023-11-18T05:20:18;11.95;;;6.75;;
4812;SDS011;2420;51.202;8.698;2023-11-18T05:22:44;12.70;;;6.95;;
4812;SDS011;2420;51.202;8.698;2023-11-18T05:25:10;12.18;;;6.40;;
4812;SDS011;2420;51.202;8.698;2023-11-18T05:27:36;13.38;;;6.78;;
4812;SDS011;2420;51.202;8.698;2023-11-18T05:30:05;13.40;;;7.40;;
4812;SDS011;2420;51.202;8.698;2023-11-18T05:32:31;9.88;;;6.43;;
4812;SDS011;2420;51.202;8.698;2023-11-18T05:34:58;16.17;;;7.05;;
4812;SDS011;2420;51.202;8.698;2023-11-18T05:37:24;14.13;;;6.95;;
4812;SDS011;2420;51.202;8.698;2023-11-18T05:39:50;12.18;;;6.53;;
4812;SDS011;2420;51.202;8.698;2023-11-18T05:42:24;11.93;;;5.82;;
4812;SDS011;2420;51.202;8.698;2023-11-18T05:44:50;9.93;;;6.03;;
4812;SDS011;2420;51.202;8.698;2023-11-18T05:47:24;11.13;;;6.07;;
4812;SDS011;2420;51.202;8.698;2023-11-18T05:49:50;12.60;;;6.13;;
4812;SDS011;2420;51.202;8.698;2023-11-18T05:52:16;14.25;;;7.00;;
4812;SDS011;2420;51.202;8.698;2023-11-18T05:54:42;15.50;;;6.32;;
4812;SDS011;2420;51.202;8.698;2023-11-18T05:57:07;12.68;;;7.38;;
4812;SDS011;2420;51.202;8.698;2023-11-18T05:59:33;14.02;;;7.88;;
4812;SDS011;2420;51.202;8.698;2023-11-18T06:01:59;12.85;;;7.55;;
4812;SDS011;2420;51.202;8.698;2023-11-18T06:04:24;13.63;;;7.70;;
4812;SDS011;2420;51.202;8.698;2023-11-18T06:06:50;12.63;;;7.68;;
4812;SDS011;2420;51.202;8.698;2023-11-18T06:09:16;12.95;;;7.90;;
4812;SDS011;2420;51.202;8.698;2023-11-18T06:11:49;14.60;;;7.82;;
4812;SDS011;2420;51.202;8.698;2023-11-18T06:14:14;13.00;;;8.00;;
4812;SDS011;2420;51.202;8.698;2023-11-18T06:16:40;15.10;;;8.07;;
4812;SDS011;2420;51.202;8.698;2023-11-18T06:19:06;13.63;;;7.63;;
4812;SDS011;2420;51.202;8.698;2023-11-18T06:21:31;12.60;;;7.85;;
4812;SDS011;2420;51.202;8.698;2023-11-18T06:24:00;12.30;;;7.35;;
4812;SDS011;2420;51.202;8.698;2023-11-18T06:26:29;10.82;;;6.80;;
4812;SDS011;2420;51.202;8.698;2023-11-18T06:28:55;11.25;;;7.03;;
4812;SDS011;2420;51.202;8.698;2023-11-18T06:31:21;13.00;;;7.90;;
4812;SDS011;2420;51.202;8.698;2023-11-18T06:33:48;14.30;;;9.20;;
4812;SDS011;2420;51.202;8.698;2023-11-18T06:38:41;13.60;;;8.20;;
4812;SDS011;2420;51.202;8.698;2023-11-18T06:41:09;15.10;;;8.55;;
4812;SDS011;2420;51.202;8.698;2023-11-18T06:43:37;17.20;;;9.00;;
4812;SDS011;2420;51.202;8.698;2023-11-18T06:46:17;15.52;;;9.90;;
4812;SDS011;2420;51.202;8.698;2023-11-18T06:48:45;16.75;;;9.80;;
4812;SDS011;2420;51.202;8.698;2023-11-18T06:51:13;21.73;;;12.00;;
4812;SDS011;2420;51.202;8.698;2023-11-18T06:53:40;29.33;;;16.23;;
4812;SDS011;2420;51.202;8.698;2023-11-18T06:56:06;25.95;;;15.52;;
4812;SDS011;2420;51.202;8.698;2023-11-18T06:58:31;23.77;;;14.40;;
4812;SDS011;2420;51.202;8.698;2023-11-18T07:00:57;22.42;;;12.75;;
4812;SDS011;2420;51.202;8.698;2023-11-18T07:03:23;21.20;;;12.40;;
4812;SDS011;2420;51.202;8.698;2023-11-18T07:05:48;18.50;;;11.40;;
4812;SDS011;2420;51.202;8.698;2023-11-18T07:08:14;15.68;;;10.32;;
4812;SDS011;2420;51.202;8.698;2023-11-18T07:10:40;17.15;;;10.82;;
4812;SDS011;2420;51.202;8.698;2023-11-18T07:13:07;19.55;;;11.30;;
4812;SDS011;2420;51.202;8.698;2023-11-18T07:15:34;18.13;;;10.77;;
4812;SDS011;2420;51.202;8.698;2023-11-18T07:18:00;18.48;;;10.93;;
4812;SDS011;2420;51.202;8.698;2023-11-18T07:20:26;15.45;;;7.60;;
4812;SDS011;2420;51.202;8.698;2023-11-18T07:22:52;14.27;;;8.45;;
4812;SDS011;2420;51.202;8.698;2023-11-18T07:25:17;13.35;;;8.07;;
4812;SDS011;2420;51.202;8.698;2023-11-18T07:27:43;17.90;;;9.20;;
4812;SDS011;2420;51.202;8.698;2023-11-18T07:30:10;21.48;;;12.30;;
4812;SDS011;2420;51.202;8.698;2023-11-18T07:32:36;13.35;;;8.23;;
4812;SDS011;2420;51.202;8.698;2023-11-18T07:35:02;14.27;;;7.80;;
4812;SDS011;2420;51.202;8.698;2023-11-18T07:37:27;28.13;;;14.65;;
4812;SDS011;2420;51.202;8.698;2023-11-18T07:39:57;16.08;;;9.88;;
4812;SDS011;2420;51.202;8.698;2023-11-18T07:42:25;16.60;;;9.82;;
4812;SDS011;2420;51.202;8.698;2023-11-18T07:44:51;18.58;;;10.85;;
4812;SDS011;2420;51.202;8.698;2023-11-18T07:47:17;21.02;;;11.15;;
4812;SDS011;2420;51.202;8.698;2023-11-18T07:49:44;17.15;;;9.75;;
4812;SDS011;2420;51.202;8.698;2023-11-18T07:52:10;15.13;;;8.25;;
4812;SDS011;2420;51.202;8.698;2023-11-18T07:54:36;17.15;;;8.65;;
4812;SDS011;2420;51.202;8.698;2023-11-18T07:57:03;16.85;;;7.72;;
4812;SDS011;2420;51.202;8.698;2023-11-18T07:59:29;14.30;;;8.35;;
4812;SDS011;2420;51.202;8.698;2023-11-18T08:01:57;11.45;;;7.03;;
4812;SDS011;2420;51.202;8.698;2023-11-18T08:04:23;12.43;;;7.45;;
4812;SDS011;2420;51.202;8.698;2023-11-18T08:06:48;12.15;;;7.30;;
4812;SDS011;2420;51.202;8.698;2023-11-18T08:09:14;11.00;;;6.40;;
4812;SDS011;2420;51.202;8.698;2023-11-18T08:11:47;12.63;;;7.32;;
4812;SDS011;2420;51.202;8.698;2023-11-18T08:14:14;18.30;;;11.27;;
4812;SDS011;2420;51.202;8.698;2023-11-18T08:16:39;19.77;;;10.05;;
4812;SDS011;2420;51.202;8.698;2023-11-18T08:19:05;17.10;;;9.27;;
4812;SDS011;2420;51.202;8.698;2023-11-18T08:21:34;20.88;;;13.00;;
4812;SDS011;2420;51.202;8.698;2023-11-18T08:24:00;17.38;;;10.32;;
4812;SDS011;2420;51.202;8.698;2023-11-18T08:26:29;20.80;;;11.05;;
4812;SDS011;2420;51.202;8.698;2023-11-18T08:28:54;23.00;;;13.20;;
4812;SDS011;2420;51.202;8.698;2023-11-18T08:31:20;22.60;;;12.45;;
4812;SDS011;2420;51.202;8.698;2023-11-18T08:33:46;23.52;;;13.50;;
4812;SDS011;2420;51.202;8.698;2023-11-18T08:36:11;19.42;;;11.80;;
4812;SDS011;2420;51.202;8.698;2023-11-18T08:38:37;41.03;;;19.55;;
4812;SDS011;2420;51.202;8.698;2023-11-18T08:41:03;32.85;;;15.20;;
4812;SDS011;2420;51.202;8.698;2023-11-18T08:43:30;22.45;;;11.43;;
4812;SDS011;2420;51.202;8.698;2023-11-18T08:45:56;17.48;;;8.90;;
4812;SDS011;2420;51.202;8.698;2023-11-18T08:48:21;16.58;;;8.35;;
4812;SDS011;2420;51.202;8.698;2023-11-18T08:50:48;18.85;;;9.40;;
4812;SDS011;2420;51.202;8.698;2023-11-18T08:53:13;16.35;;;9.20;;
4812;SDS011;2420;51.202;8.698;2023-11-18T08:55:42;15.55;;;9.23;;
4812;SDS011;2420;51.202;8.698;2023-11-18T08:58:21;16.77;;;9.15;;
4812;SDS011;2420;51.202;8.698;2023-11-18T09:00:48;17.50;;;8.93;;
4812;SDS011;2420;51.202;8.698;2023-11-18T09:03:19;18.63;;;8.98;;
4812;SDS011;2420;51.202;8.698;2023-11-18T09:05:52;29.90;;;11.57;;
4812;SDS011;2420;51.202;8.698;2023-11-18T09:08:26;28.55;;;14.73;;
4812;SDS011;2420;51.202;8.698;2023-11-18T09:10:54;23.40;;;10.60;;
4812;SDS011;2420;51.202;8.698;2023-11-18T09:13:21;23.75;;;9.55;;
4812;SDS011;2420;51.202;8.698;2023-11-18T09:15:53;17.33;;;9.90;;
4812;SDS011;2420;51.202;8.698;2023-11-18T09:18:25;15.00;;;9.20;;
4812;SDS011;2420;51.202;8.698;2023-11-18T09:20:52;22.63;;;11.80;;
4812;SDS011;2420;51.202;8.698;2023-11-18T09:23:20;20.52;;;11.50;;
4812;SDS011;2420;51.202;8.698;2023-11-18T09:25:48;18.88;;;10.55;;
4812;SDS011;2420;51.202;8.698;2023-11-18T09:28:15;21.02;;;10.88;;
4812;SDS011;2420;51.202;8.698;2023-11-18T09:30:50;20.63;;;10.90;;
4812;SDS011;2420;51.202;8.698;2023-11-18T09:33:21;20.20;;;11.18;;
4812;SDS011;2420;51.202;8.698;2023-11-18T09:35:53;22.42;;;10.98;;
4812;SDS011;2420;51.202;8.698;2023-11-18T09:38:28;21.75;;;11.00;;
4812;SDS011;2420;51.202;8.698;2023-11-18T09:40:58;20.05;;;10.98;;
4812;SDS011;2420;51.202;8.698;2023-11-18T09:43:29;29.60;;;14.52;;
4812;SDS011;2420;51.202;8.698;2023-11-18T09:46:03;27.73;;;14.98;;
4812;SDS011;2420;51.202;8.698;2023-11-18T09:48:39;28.65;;;13.70;;
4812;SDS011;2420;51.202;8.698;2023-11-18T09:51:39;24.63;;;12.93;;
4812;SDS011;2420;51.202;8.698;2023-11-18T09:54:50;23.55;;;12.75;;
4812;SDS011;2420;51.202;8.698;2023-11-18T09:57:19;22.17;;;12.68;;
4812;SDS011;2420;51.202;8.698;2023-11-18T10:00:05;27.08;;;12.70;;
4812;SDS011;2420;51.202;8.698;2023-11-18T10:02:44;23.33;;;12.52;;
4812;SDS011;2420;51.202;8.698;2023-11-18T10:05:12;26.02;;;12.80;;
4812;SDS011;2420;51.202;8.698;2023-11-18T10:07:43;24.08;;;11.30;;
4812;SDS011;2420;51.202;8.698;2023-11-18T10:10:12;25.23;;;11.65;;
4812;SDS011;2420;51.202;8.698;2023-11-18T10:12:44;21.60;;;10.82;;
4812;SDS011;2420;51.202;8.698;2023-11-18T10:15:11;25.13;;;11.18;;
4812;SDS011;2420;51.202;8.698;2023-11-18T10:17:42;30.42;;;11.50;;
4812;SDS011;2420;51.202;8.698;2023-11-18T10:20:49;25.55;;;11.30;;
4812;SDS011;2420;51.202;8.698;2023-11-18T10:23:20;31.02;;;11.55;;
4812;SDS011;2420;51.202;8.698;2023-11-18T10:28:28;23.50;;;10.70;;
4812;SDS011;2420;51.202;8.698;2023-11-18T10:30:57;25.33;;;12.90;;
4812;SDS011;2420;51.202;8.698;2023-11-18T10:33:25;22.15;;;10.45;;
4812;SDS011;2420;51.202;8.698;2023-11-18T10:35:56;22.70;;;10.60;;
4812;SDS011;2420;51.202;8.698;2023-11-18T10:38:22;23.83;;;10.50;;
4812;SDS011;2420;51.202;8.698;2023-11-18T10:40:54;23.65;;;10.95;;
4812;SDS011;2420;51.202;8.698;2023-11-18T10:43:21;21.30;;;10.73;;
4812;SDS011;2420;51.202;8.698;2023-11-18T10:45:50;20.67;;;10.45;;
4812;SDS011;2420;51.202;8.698;2023-11-18T10:48:18;23.83;;;11.43;;
4812;SDS011;2420;51.202;8.698;2023-11-18T10:50:46;24.20;;;10.65;;
4812;SDS011;2420;51.202;8.698;2023-11-18T10:53:15;23.75;;;10.57;;
4812;SDS011;2420;51.202;8.698;2023-11-18T10:55:43;20.58;;;10.30;;
4812;SDS011;2420;51.202;8.698;2023-11-18T10:58:08;25.33;;;10.40;;
4812;SDS011;2420;51.202;8.698;2023-11-18T11:00:50;23.00;;;11.05;;
4812;SDS011;2420;51.202;8.698;2023-11-18T11:03:20;24.10;;;12.35;;
4812;SDS011;2420;51.202;8.698;2023-11-18T11:05:48;25.05;;;11.65;;
4812;SDS011;2420;51.202;8.698;2023-11-18T11:08:19;25.02;;;10.75;;
4812;SDS011;2420;51.202;8.698;2023-11-18T11:10:45;27.63;;;10.75;;
4812;SDS011;2420;51.202;8.698;2023-11-18T11:13:13;24.92;;;10.70;;
4812;SDS011;2420;51.202;8.698;2023-11-18T11:15:43;23.83;;;10.30;;
4812;SDS011;2420;51.202;8.698;2023-11-18T11:18:14;20.27;;;10.32;;
4812;SDS011;2420;51.202;8.698;2023-11-18T11:20:57;23.08;;;9.02;;
4812;SDS011;2420;51.202;8.698;2023-11-18T11:23:42;24.10;;;7.32;;
4812;SDS011;2420;51.202;8.698;2023-11-18T11:34:37;21.33;;;8.30;;
4812;SDS011;2420;51.202;8.698;2023-11-18T11:37:07;19.60;;;8.30;;
4812;SDS011;2420;51.202;8.698;2023-11-18T11:39:34;18.17;;;7.95;;
4812;SDS011;2420;51.202;8.698;2023-11-18T11:42:01;19.33;;;8.10;;
4812;SDS011;2420;51.202;8.698;2023-11-18T11:44:28;20.10;;;8.63;;
4812;SDS011;2420;51.202;8.698;2023-11-18T11:46:55;18.58;;;8.55;;
4812;SDS011;2420;51.202;8.698;2023-11-18T11:49:25;27.92;;;8.80;;
4812;SDS011;2420;51.202;8.698;2023-11-18T11:52:02;22.35;;;8.18;;
4812;SDS011;2420;51.202;8.698;2023-11-18T11:54:38;24.40;;;9.00;;
4812;SDS011;2420;51.202;8.698;2023-11-18T11:57:09;19.42;;;8.00;;
4812;SDS011;2420;51.202;8.698;2023-11-18T12:02:12;22.77;;;7.72;;
4812;SDS011;2420;51.202;8.698;2023-11-18T12:04:43;23.83;;;7.18;;
4812;SDS011;2420;51.202;8.698;2023-11-18T12:07:17;15.48;;;6.95;;
4812;SDS011;2420;51.202;8.698;2023-11-18T12:09:46;21.52;;;7.70;;
4812;SDS011;2420;51.202;8.698;2023-11-18T12:12:19;20.05;;;7.55;;
4812;SDS011;2420;51.202;8.698;2023-11-18T12:14:52;19.73;;;6.75;;
4812;SDS011;2420;51.202;8.698;2023-11-18T12:17:25;24.42;;;7.78;;
4812;SDS011;2420;51.202;8.698;2023-11-18T12:19:56;43.53;;;9.38;;
4812;SDS011;2420;51.202;8.698;2023-11-18T12:22:25;18.50;;;7.40;;
4812;SDS011;2420;51.202;8.698;2023-11-18T12:33:05;25.75;;;9.40;;
4812;SDS011;2420;51.202;8.698;2023-11-18T12:41:43;26.08;;;9.60;;
4812;SDS011;2420;51.202;8.698;2023-11-18T12:44:28;22.13;;;7.32;;
4812;SDS011;2420;51.202;8.698;2023-11-18T12:47:04;28.23;;;7.22;;
4812;SDS011;2420;51.202;8.698;2023-11-18T12:49:46;20.70;;;7.22;;
4812;SDS011;2420;51.202;8.698;2023-11-18T12:52:19;16.80;;;8.00;;
4812;SDS011;2420;51.202;8.698;2023-11-18T12:54:46;26.35;;;7.70;;
4812;SDS011;2420;51.202;8.698;2023-11-18T12:57:37;19.88;;;7.28;;
4812;SDS011;2420;51.202;8.698;2023-11-18T13:00:03;23.65;;;8.45;;
4812;SDS011;2420;51.202;8.698;2023-11-18T13:02:36;18.83;;;7.65;;
4812;SDS011;2420;51.202;8.698;2023-11-18T13:05:05;24.42;;;9.35;;
4812;SDS011;2420;51.202;8.698;2023-11-18T13:07:34;19.30;;;9.00;;
4812;SDS011;2420;51.202;8.698;2023-11-18T13:10:01;20.50;;;9.02;;
4812;SDS011;2420;51.202;8.698;2023-11-18T13:12:32;19.90;;;9.00;;
4812;SDS011;2420;51.202;8.698;2023-11-18T13:14:59;16.15;;;8.05;;
4812;SDS011;2420;51.202;8.698;2023-11-18T13:17:25;18.23;;;8.02;;
4812;SDS011;2420;51.202;8.698;2023-11-18T13:19:53;25.20;;;9.15;;
4812;SDS011;2420;51.202;8.698;2023-11-18T13:22:19;25.55;;;8.27;;
4812;SDS011;2420;51.202;8.698;2023-11-18T13:24:44;16.73;;;8.38;;
4812;SDS011;2420;51.202;8.698;2023-11-18T13:27:13;27.15;;;8.48;;
4812;SDS011;2420;51.202;8.698;2023-11-18T13:29:43;19.67;;;8.85;;
4812;SDS011;2420;51.202;8.698;2023-11-18T13:32:10;17.35;;;7.80;;
4812;SDS011;2420;51.202;8.698;2023-11-18T13:34:37;21.48;;;8.48;;
4812;SDS011;2420;51.202;8.698;2023-11-18T13:37:07;19.20;;;8.77;;
4812;SDS011;2420;51.202;8.698;2023-11-18T13:39:34;18.80;;;8.45;;
4812;SDS011;2420;51.202;8.698;2023-11-18T13:42:17;20.33;;;9.20;;
4812;SDS011;2420;51.202;8.698;2023-11-18T13:44:44;19.13;;;9.57;;
4812;SDS011;2420;51.202;8.698;2023-11-18T13:47:11;18.17;;;8.82;;
4812;SDS011;2420;51.202;8.698;2023-11-18T13:49:37;20.35;;;9.35;;
4812;SDS011;2420;51.202;8.698;2023-11-18T13:52:06;22.17;;;10.02;;
4812;SDS011;2420;51.202;8.698;2023-11-18T13:54:40;24.85;;;9.15;;
4812;SDS011;2420;51.202;8.698;2023-11-18T13:57:07;17.35;;;8.98;;
4812;SDS011;2420;51.202;8.698;2023-11-18T13:59:34;17.55;;;8.48;;
4812;SDS011;2420;51.202;8.698;2023-11-18T14:02:00;15.82;;;7.93;;
4812;SDS011;2420;51.202;8.698;2023-11-18T14:04:27;14.60;;;7.65;;
4812;SDS011;2420;51.202;8.698;2023-11-18T14:06:57;13.00;;;7.45;;
4812;SDS011;2420;51.202;8.698;2023-11-18T14:09:24;14.88;;;8.10;;
4812;SDS011;2420;51.202;8.698;2023-11-18T14:11:55;16.38;;;8.93;;
4812;SDS011;2420;51.202;8.698;2023-11-18T14:14:21;15.98;;;8.63;;
4812;SDS011;2420;51.202;8.698;2023-11-18T14:16:48;16.10;;;8.63;;
4812;SDS011;2420;51.202;8.698;2023-11-18T14:19:14;14.65;;;7.63;;
4812;SDS011;2420;51.202;8.698;2023-11-18T14:21:40;15.13;;;7.32;;
4812;SDS011;2420;51.202;8.698;2023-11-18T14:24:07;11.80;;;6.50;;
4812;SDS011;2420;51.202;8.698;2023-11-18T14:26:35;12.05;;;6.40;;
4812;SDS011;2420;51.202;8.698;2023-11-18T14:29:01;10.60;;;5.50;;
4812;SDS011;2420;51.202;8.698;2023-11-18T14:31:27;11.13;;;6.25;;
4812;SDS011;2420;51.202;8.698;2023-11-18T14:33:53;13.65;;;7.00;;
4812;SDS011;2420;51.202;8.698;2023-11-18T14:36:23;16.13;;;8.65;;
4812;SDS011;2420;51.202;8.698;2023-11-18T14:38:49;14.63;;;8.98;;
4812;SDS011;2420;51.202;8.698;2023-11-18T14:41:15;15.43;;;8.75;;
4812;SDS011;2420;51.202;8.698;2023-11-18T14:43:41;13.32;;;7.30;;
4812;SDS011;2420;51.202;8.698;2023-11-18T14:46:07;10.32;;;6.38;;
4812;SDS011;2420;51.202;8.698;2023-11-18T14:48:33;8.75;;;5.30;;
4812;SDS011;2420;51.202;8.698;2023-11-18T14:50:59;11.25;;;6.10;;
4812;SDS011;2420;51.202;8.698;2023-11-18T14:53:25;9.65;;;5.95;;
4812;SDS011;2420;51.202;8.698;2023-11-18T14:55:51;9.73;;;5.68;;
4812;SDS011;2420;51.202;8.698;2023-11-18T14:58:16;10.48;;;5.55;;
4812;SDS011;2420;51.202;8.698;2023-11-18T15:00:42;10.35;;;6.75;;
4812;SDS011;2420;51.202;8.698;2023-11-18T15:03:08;9.13;;;6.13;;
4812;SDS011;2420;51.202;8.698;2023-11-18T15:05:35;9.85;;;6.32;;
4812;SDS011;2420;51.202;8.698;2023-11-18T15:08:00;9.73;;;6.35;;
4812;SDS011;2420;51.202;8.698;2023-11-18T15:10:26;9.65;;;6.50;;
4812;SDS011;2420;51.202;8.698;2023-11-18T15:12:56;10.65;;;6.22;;
4812;SDS011;2420;51.202;8.698;2023-11-18T15:15:26;8.95;;;5.90;;
4812;SDS011;2420;51.202;8.698;2023-11-18T15:17:57;9.18;;;5.78;;
4812;SDS011;2420;51.202;8.698;2023-11-18T15:20:24;10.82;;;5.28;;
4812;SDS011;2420;51.202;8.698;2023-11-18T15:22:50;7.88;;;4.65;;
4812;SDS011;2420;51.202;8.698;2023-11-18T15:25:15;9.90;;;5.22;;
4812;SDS011;2420;51.202;8.698;2023-11-18T15:27:46;10.10;;;6.10;;
4812;SDS011;2420;51.202;8.698;2023-11-18T15:30:12;14.98;;;9.77;;
4812;SDS011;2420;51.202;8.698;2023-11-18T15:32:39;17.70;;;9.98;;
4812;SDS011;2420;51.202;8.698;2023-11-18T15:35:05;16.83;;;9.95;;